Alegria — LE9325 — position and weather

sailwx.info

Track history (hours):
 
Tides and Currents Weather Stations Pressure Air Temp Water Temp Dewpoint Dewpoint Depression Visibility Wind Speed Wind Dir Waves Ship Positions

Alegria

Last reported at 2017-Jun-19 12:24 UTC. Time now 2017-Jun-24 17:31 UTC.
Position N 58°22' E 010°32'.

Length 11 m.

Type: Pleasure craft. MMSI: 258532510.

Date/timePositionNaut miles runAvg speedWind from/ knotsBaromVisibWave heightAir tempDewpointWater temp
2017-Jun-19 12:24N 58°22' E 010°32'2 5.8
2017-Jun-19 12:00N 58°24' E 010°31'4 5.3
2017-Jun-19 11:14N 58°28' E 010°30'1 5.7
2017-Jun-19 11:00N 58°30' E 010°30'2 4.5
2017-Jun-19 10:30N 58°32' E 010°29'16 5.1
2017-Jun-19 07:21N 58°48' E 010°27'2 5.5
2017-Jun-19 07:00N 58°50' E 010°27'3 5.5
2017-Jun-19 06:30N 58°52' E 010°26'3 5.5
2017-Jun-19 05:59N 58°55' E 010°26'3 6.1
2017-Jun-19 05:30N 58°58' E 010°26'3 5.7
2017-Jun-19 04:59N 59°01' E 010°26'2 4.9
2017-Jun-19 04:30N 59°03' E 010°25'0 0.0
2017-Jun-18 12:09N 59°04' E 010°25'0 1.4
2017-Jun-18 11:56N 59°03' E 010°25'1 2.3
2017-Jun-18 11:30N 59°04' E 010°23'3 6.1
2017-Jun-18 10:58N 59°07' E 010°23'3 5.3
2017-Jun-18 10:25N 59°10' E 010°22'2 4.9
2017-Jun-18 09:58N 59°12' E 010°21'3 5.9
2017-Jun-18 09:25N 59°15' E 010°23'2 0.0
2017-Jun-16 11:42N 59°13' E 010°22'1 5.5
2017-Jun-16 11:30N 59°12' E 010°21'2 0.1
2017-Jun-15 15:24N 59°10' E 010°20'3 3.0
2017-Jun-15 14:33N 59°10' E 010°25'3 5.2
2017-Jun-15 14:00N 59°08' E 010°29'3 6.4
2017-Jun-15 13:30N 59°08' E 010°36'1 2.4
2017-Jun-15 12:59N 59°07' E 010°38'3 6.2
2017-Jun-15 12:30N 59°08' E 010°43'3 6.1
2017-Jun-15 12:00N 59°08' E 010°49'2 4.7
2017-Jun-15 11:30N 59°08' E 010°54'2 4.9
2017-Jun-15 11:00N 59°10' E 010°57'  
2017-Jun-11 09:32N 59°11' E 010°57'0 0.0
2017-Jun-11 09:28N 59°11' E 010°57'2 4.6
2017-Jun-11 09:00N 59°09' E 010°57'3 5.2
2017-Jun-11 08:30N 59°09' E 010°51'3 5.8
2017-Jun-11 08:00N 59°10' E 010°47'3 6.4
2017-Jun-11 07:29N 59°13' E 010°44'3 6.3
2017-Jun-11 07:00N 59°16' E 010°43'3 5.1
2017-Jun-11 06:30N 59°19' E 010°42'0 0.0
2017-Jun-10 19:18N 59°19' E 010°42'0 0.6
2017-Jun-10 19:00N 59°19' E 010°42'1 2.8
2017-Jun-10 18:30N 59°19' E 010°40'3 5.9
2017-Jun-10 18:00N 59°22' E 010°37'3 5.3
2017-Jun-10 17:31N 59°25' E 010°35'3 5.6
2017-Jun-10 17:00N 59°27' E 010°36'3 6.3
2017-Jun-10 16:30N 59°31' E 010°37'3 6.4
2017-Jun-10 16:00N 59°34' E 010°38'3 5.9
2017-Jun-10 15:28N 59°37' E 010°37'3 6.1
2017-Jun-10 15:00N 59°40' E 010°37'6 5.9
2017-Jun-10 14:00N 59°45' E 010°35'3 6.6
2017-Jun-10 13:30N 59°49' E 010°36'3 6.2
2017-Jun-10 13:00N 59°51' E 010°38'2 3.7
2017-Jun-10 12:30N 59°51' E 010°42'3 6.6
2017-Jun-10 12:00N 59°48' E 010°43'3 6.7
2017-Jun-10 11:30N 59°44' E 010°43'1 1.6
2017-Jun-10 10:59N 59°44' E 010°44'  
Track history (hours):
 
Tides and Currents Weather Stations Pressure Air Temp Water Temp Dewpoint Dewpoint Depression Visibility Wind Speed Wind Dir Waves Ship Positions

Alegria

Last reported at 2017-Jun-19 12:24 UTC. Time now 2017-Jun-24 17:31 UTC.
Position N 58°22' E 010°32'.

Length 11 m.

Type: Pleasure craft. MMSI: 258532510.

Date/timePositionNaut miles runAvg speedWind from/ knotsBaromVisibWave heightAir tempDewpointWater temp
2017-Jun-19 12:24N 58°22' E 010°32'2 5.8
2017-Jun-19 12:00N 58°24' E 010°31'4 5.3
2017-Jun-19 11:14N 58°28' E 010°30'1 5.7
2017-Jun-19 11:00N 58°30' E 010°30'2 4.5
2017-Jun-19 10:30N 58°32' E 010°29'16 5.1
2017-Jun-19 07:21N 58°48' E 010°27'2 5.5
2017-Jun-19 07:00N 58°50' E 010°27'3 5.5
2017-Jun-19 06:30N 58°52' E 010°26'3 5.5
2017-Jun-19 05:59N 58°55' E 010°26'3 6.1
2017-Jun-19 05:30N 58°58' E 010°26'3 5.7
2017-Jun-19 04:59N 59°01' E 010°26'2 4.9
2017-Jun-19 04:30N 59°03' E 010°25'0 0.0
2017-Jun-18 12:09N 59°04' E 010°25'0 1.4
2017-Jun-18 11:56N 59°03' E 010°25'1 2.3
2017-Jun-18 11:30N 59°04' E 010°23'3 6.1
2017-Jun-18 10:58N 59°07' E 010°23'3 5.3
2017-Jun-18 10:25N 59°10' E 010°22'2 4.9
2017-Jun-18 09:58N 59°12' E 010°21'3 5.9
2017-Jun-18 09:25N 59°15' E 010°23'2 0.0
2017-Jun-16 11:42N 59°13' E 010°22'1 5.5
2017-Jun-16 11:30N 59°12' E 010°21'2 0.1
2017-Jun-15 15:24N 59°10' E 010°20'3 3.0
2017-Jun-15 14:33N 59°10' E 010°25'3 5.2
2017-Jun-15 14:00N 59°08' E 010°29'3 6.4
2017-Jun-15 13:30N 59°08' E 010°36'1 2.4
2017-Jun-15 12:59N 59°07' E 010°38'3 6.2
2017-Jun-15 12:30N 59°08' E 010°43'3 6.1
2017-Jun-15 12:00N 59°08' E 010°49'2 4.7
2017-Jun-15 11:30N 59°08' E 010°54'2 4.9
2017-Jun-15 11:00N 59°10' E 010°57'  
2017-Jun-11 09:32N 59°11' E 010°57'0 0.0
2017-Jun-11 09:28N 59°11' E 010°57'2 4.6
2017-Jun-11 09:00N 59°09' E 010°57'3 5.2
2017-Jun-11 08:30N 59°09' E 010°51'3 5.8
2017-Jun-11 08:00N 59°10' E 010°47'3 6.4
2017-Jun-11 07:29N 59°13' E 010°44'3 6.3
2017-Jun-11 07:00N 59°16' E 010°43'3 5.1
2017-Jun-11 06:30N 59°19' E 010°42'0 0.0
2017-Jun-10 19:18N 59°19' E 010°42'0 0.6
2017-Jun-10 19:00N 59°19' E 010°42'1 2.8
2017-Jun-10 18:30N 59°19' E 010°40'3 5.9
2017-Jun-10 18:00N 59°22' E 010°37'3 5.3
2017-Jun-10 17:31N 59°25' E 010°35'3 5.6
2017-Jun-10 17:00N 59°27' E 010°36'3 6.3
2017-Jun-10 16:30N 59°31' E 010°37'3 6.4
2017-Jun-10 16:00N 59°34' E 010°38'3 5.9
2017-Jun-10 15:28N 59°37' E 010°37'3 6.1
2017-Jun-10 15:00N 59°40' E 010°37'6 5.9
2017-Jun-10 14:00N 59°45' E 010°35'3 6.6
2017-Jun-10 13:30N 59°49' E 010°36'3 6.2
2017-Jun-10 13:00N 59°51' E 010°38'2 3.7
2017-Jun-10 12:30N 59°51' E 010°42'3 6.6
2017-Jun-10 12:00N 59°48' E 010°43'3 6.7
2017-Jun-10 11:30N 59°44' E 010°43'1 1.6
2017-Jun-10 10:59N 59°44' E 010°44'  

Dump ship's entire track history